createdAt,value
2024-03-07T05:17:42.830Z,35.22
2024-03-07T05:20:16.498Z,38.63
2024-03-07T05:22:51.169Z,38.08
2024-03-07T05:25:19.573Z,42.22
2024-03-07T05:27:47.020Z,38.53
2024-03-07T05:30:16.250Z,39.28
2024-03-07T05:32:44.197Z,33.90
2024-03-07T05:35:12.335Z,39.90
2024-03-07T05:37:43.221Z,42.00
2024-03-07T05:40:10.666Z,35.80
2024-03-07T05:42:37.199Z,33.47
2024-03-07T05:45:04.478Z,37.70
2024-03-07T05:47:31.634Z,40.45
2024-03-07T05:49:59.530Z,35.63
2024-03-07T05:52:26.024Z,33.88
2024-03-07T05:54:52.630Z,33.28
2024-03-07T05:57:19.287Z,33.25
2024-03-07T05:59:46.851Z,32.88
2024-03-07T06:02:16.313Z,33.95
2024-03-07T06:04:44.137Z,32.97
2024-03-07T06:07:12.158Z,32.22
2024-03-07T06:09:38.928Z,36.13
2024-03-07T06:12:16.360Z,30.50
2024-03-07T06:14:50.158Z,28.80
2024-03-07T06:17:19.134Z,34.08
2024-03-07T06:19:45.704Z,34.10
2024-03-07T06:22:13.627Z,32.78
2024-03-07T06:24:41.412Z,31.90
2024-03-07T06:27:16.820Z,32.40
2024-03-07T06:29:43.423Z,30.77
2024-03-07T06:32:11.135Z,31.25
2024-03-07T06:34:37.629Z,32.00
2024-03-07T06:37:04.114Z,29.38
2024-03-07T06:39:32.275Z,27.20
2024-03-07T06:41:59.008Z,30.13
2024-03-07T06:44:26.583Z,34.45
2024-03-07T06:46:53.263Z,28.02
2024-03-07T06:49:21.898Z,31.60
2024-03-07T06:51:48.434Z,30.48
2024-03-07T06:54:15.062Z,35.88
2024-03-07T06:56:44.671Z,30.95
2024-03-07T06:59:11.426Z,32.00
2024-03-07T07:01:38.033Z,30.83
2024-03-07T07:04:05.336Z,30.17
2024-03-07T07:06:32.325Z,28.85
2024-03-07T07:09:00.466Z,28.88
2024-03-07T07:11:30.622Z,28.30
2024-03-07T07:14:01.333Z,27.65
2024-03-07T07:16:28.426Z,31.38
2024-03-07T07:18:56.405Z,29.45
2024-03-07T07:21:22.927Z,30.65
2024-03-07T07:23:49.495Z,27.10
2024-03-07T07:26:16.069Z,30.67
2024-03-07T07:28:42.721Z,28.35
2024-03-07T07:31:10.618Z,32.00
2024-03-07T07:33:37.328Z,31.40
2024-03-07T07:36:04.849Z,31.48
2024-03-07T07:38:32.814Z,28.98
2024-03-07T07:40:59.780Z,34.53
2024-03-07T07:43:33.949Z,26.55
2024-03-07T07:46:10.238Z,29.80
2024-03-07T07:48:36.934Z,28.58
2024-03-07T07:51:06.279Z,28.55
2024-03-07T07:53:33.167Z,33.08
2024-03-07T07:55:59.889Z,29.45
2024-03-07T07:58:26.375Z,29.70
2024-03-07T08:00:53.389Z,29.63
2024-03-07T08:03:23.183Z,25.35
2024-03-07T08:05:49.871Z,25.88
2024-03-07T08:08:17.899Z,17.80
2024-03-07T08:10:47.012Z,30.15
2024-03-07T08:13:14.330Z,24.52
2024-03-07T08:15:41.491Z,26.75
2024-03-07T08:18:09.682Z,26.73
2024-03-07T08:20:39.830Z,26.10
2024-03-07T08:23:06.407Z,26.40
2024-03-07T08:25:33.093Z,25.48
2024-03-07T08:28:00.019Z,25.17
2024-03-07T08:30:27.950Z,23.13
2024-03-07T08:32:56.351Z,21.17
2024-03-07T08:35:24.082Z,24.75
2024-03-07T08:37:56.730Z,24.73
2024-03-07T08:40:28.298Z,25.95
2024-03-07T08:42:56.745Z,19.15
2024-03-07T08:45:23.999Z,21.05
2024-03-07T08:47:53.103Z,24.48
2024-03-07T08:50:20.126Z,28.27
2024-03-07T08:52:48.970Z,28.30
2024-03-07T08:55:18.309Z,29.02
2024-03-07T08:57:49.583Z,25.08
2024-03-07T09:00:23.465Z,20.35
2024-03-07T09:02:53.054Z,24.88
2024-03-07T09:05:20.854Z,22.92
2024-03-07T09:07:47.927Z,20.98
2024-03-07T09:10:18.413Z,17.30
2024-03-07T09:12:47.191Z,22.73
2024-03-07T09:15:14.379Z,22.85
2024-03-07T09:17:41.005Z,21.30
2024-03-07T09:20:11.842Z,18.58
2024-03-07T09:22:38.560Z,25.38
2024-03-07T09:25:07.068Z,18.35
2024-03-07T09:27:33.593Z,17.48
2024-03-07T09:30:01.550Z,18.40
2024-03-07T09:32:29.081Z,20.95
2024-03-07T09:34:55.964Z,20.02
2024-03-07T09:37:24.693Z,18.88
2024-03-07T09:39:51.331Z,20.33
2024-03-07T09:42:19.154Z,16.75
2024-03-07T09:44:47.647Z,20.17
2024-03-07T09:47:15.947Z,23.13
2024-03-07T09:49:42.661Z,23.02
2024-03-07T09:52:12.745Z,20.58
2024-03-07T09:54:40.199Z,18.65
2024-03-07T09:57:09.102Z,23.85
2024-03-07T09:59:37.437Z,21.73
2024-03-07T10:02:06.146Z,21.10
2024-03-07T10:04:42.206Z,20.77
2024-03-07T10:07:14.806Z,22.85
2024-03-07T10:09:42.904Z,19.80
2024-03-07T10:12:13.392Z,14.95
2024-03-07T10:14:48.924Z,22.48
2024-03-07T10:17:15.864Z,19.25
2024-03-07T10:19:43.925Z,20.48
2024-03-07T10:22:10.542Z,19.27
2024-03-07T10:24:37.092Z,22.65
2024-03-07T10:27:05.509Z,24.63
2024-03-07T10:29:32.450Z,18.83
2024-03-07T10:32:04.998Z,22.48
2024-03-07T10:34:34.286Z,20.67
2024-03-07T10:37:05.019Z,21.33
2024-03-07T10:39:32.551Z,16.02
2024-03-07T10:42:06.488Z,21.48
2024-03-07T10:44:39.607Z,21.48
2024-03-07T10:47:07.279Z,18.13
2024-03-07T10:49:37.827Z,18.80
2024-03-07T10:52:12.049Z,20.35
2024-03-07T10:54:56.813Z,21.95
2024-03-07T10:57:41.370Z,20.33
2024-03-07T11:00:31.352Z,18.45
2024-03-07T11:02:58.315Z,19.83
2024-03-07T11:05:30.469Z,18.77
2024-03-07T11:08:00.262Z,16.00
2024-03-07T11:10:27.674Z,19.13
2024-03-07T11:12:55.486Z,14.20
2024-03-07T11:15:24.007Z,15.90
2024-03-07T11:17:52.048Z,21.23
2024-03-07T11:20:22.915Z,19.20
2024-03-07T11:22:50.543Z,15.68
2024-03-07T11:25:22.241Z,18.50
2024-03-07T11:27:53.251Z,16.48
2024-03-07T11:30:22.356Z,18.88
2024-03-07T11:32:51.456Z,17.55
2024-03-07T11:35:26.566Z,15.20
2024-03-07T11:37:58.413Z,15.10
2024-03-07T11:40:45.196Z,15.43
2024-03-07T11:43:13.618Z,20.38
2024-03-07T11:45:45.985Z,15.50
2024-03-07T11:48:13.186Z,18.15
2024-03-07T11:50:41.223Z,16.88
2024-03-07T11:53:09.322Z,13.23
2024-03-07T11:55:52.381Z,19.27
2024-03-07T11:58:22.504Z,18.33
2024-03-07T12:00:50.407Z,18.42
2024-03-07T12:03:22.301Z,15.05
2024-03-07T12:05:49.925Z,16.13
2024-03-07T12:08:16.657Z,17.55
2024-03-07T12:10:48.688Z,16.67
2024-03-07T12:13:16.817Z,16.35
2024-03-07T12:15:45.732Z,14.23
2024-03-07T12:18:18.542Z,11.75
2024-03-07T12:20:55.009Z,16.98
2024-03-07T12:23:24.803Z,18.38
2024-03-07T12:26:00.390Z,15.43
2024-03-07T12:30:59.011Z,15.32
2024-03-07T12:33:28.552Z,16.48
2024-03-07T12:36:07.114Z,15.20
2024-03-07T12:38:37.437Z,16.50
2024-03-07T12:41:09.656Z,15.82
2024-03-07T12:43:36.562Z,19.88
2024-03-07T12:46:06.569Z,17.88
2024-03-07T12:48:33.364Z,16.00
2024-03-07T12:51:02.458Z,17.65
2024-03-07T12:53:30.661Z,16.42
2024-03-07T12:55:57.488Z,15.68
2024-03-07T12:58:26.790Z,14.35
2024-03-07T13:00:53.807Z,13.55
2024-03-07T13:03:21.893Z,12.13
2024-03-07T13:05:48.730Z,12.23
2024-03-07T13:08:16.010Z,10.77
2024-03-07T13:10:43.361Z,9.60
2024-03-07T13:13:13.042Z,9.18
2024-03-07T13:15:40.435Z,10.98
2024-03-07T13:18:08.619Z,13.13
2024-03-07T13:20:37.394Z,14.57
2024-03-07T13:23:04.635Z,11.13
2024-03-07T13:25:33.995Z,14.73
2024-03-07T13:30:29.114Z,13.40
2024-03-07T13:32:56.862Z,15.07
2024-03-07T13:35:24.188Z,10.23
2024-03-07T13:37:55.120Z,12.05
2024-03-07T13:40:25.082Z,11.00
2024-03-07T13:42:53.114Z,11.50
2024-03-07T13:45:22.020Z,13.45
2024-03-07T13:47:54.158Z,14.75
2024-03-07T13:50:35.595Z,14.27
2024-03-07T13:53:14.901Z,13.68
2024-03-07T13:55:53.887Z,14.15
2024-03-07T13:58:40.317Z,10.80
2024-03-07T14:01:24.839Z,15.15
2024-03-07T14:04:24.911Z,9.40
2024-03-07T14:07:06.649Z,12.80
2024-03-07T14:12:35.879Z,11.05
2024-03-07T14:15:41.970Z,12.48
2024-03-07T14:18:29.196Z,10.65
2024-03-07T14:21:27.915Z,12.40
2024-03-07T14:24:17.411Z,15.18
2024-03-07T14:27:10.947Z,12.20
2024-03-07T14:29:45.781Z,13.95
2024-03-07T14:32:13.313Z,11.07
2024-03-07T14:34:51.450Z,17.42
2024-03-07T14:37:24.847Z,13.82
2024-03-07T14:39:56.275Z,12.77
2024-03-07T14:42:23.517Z,14.05
2024-03-07T14:44:51.902Z,12.73
2024-03-07T14:47:21.270Z,9.20
2024-03-07T14:52:14.601Z,12.07
2024-03-07T14:54:42.753Z,12.27
2024-03-07T14:57:11.936Z,11.23
2024-03-07T14:59:39.108Z,12.30
2024-03-07T15:02:11.733Z,10.40
2024-03-07T15:04:40.014Z,12.88
2024-03-07T15:07:06.588Z,12.13
2024-03-07T15:09:34.991Z,11.05
2024-03-07T15:12:01.727Z,13.82
2024-03-07T15:14:37.308Z,11.63
2024-03-07T15:17:07.534Z,12.05
2024-03-07T15:19:35.954Z,11.05
2024-03-07T15:22:04.020Z,13.23
2024-03-07T15:24:31.014Z,14.13
2024-03-07T15:26:58.723Z,11.27
2024-03-07T15:29:25.427Z,12.82
2024-03-07T15:31:51.983Z,15.32
2024-03-07T15:34:20.667Z,11.10
2024-03-07T15:36:47.779Z,13.23
2024-03-07T15:39:20.906Z,10.38
2024-03-07T15:41:48.774Z,9.52
2024-03-07T15:44:16.174Z,10.77
2024-03-07T15:46:42.793Z,11.57
2024-03-07T15:49:10.067Z,10.95
2024-03-07T15:51:37.963Z,10.10
2024-03-07T15:54:06.108Z,12.65
2024-03-07T15:56:32.801Z,11.30
2024-03-07T15:58:59.402Z,11.55
2024-03-07T16:01:25.994Z,12.05
2024-03-07T16:03:52.589Z,10.23
2024-03-07T16:06:19.909Z,11.25
2024-03-07T16:08:47.892Z,13.45
2024-03-07T16:11:19.901Z,11.68
2024-03-07T16:13:47.114Z,12.27
2024-03-07T16:16:14.186Z,12.68
2024-03-07T16:18:42.915Z,12.32
2024-03-07T16:21:09.558Z,9.65
2024-03-07T16:23:36.259Z,11.52
2024-03-07T16:26:05.484Z,12.05
2024-03-07T16:28:32.049Z,11.85
2024-03-07T16:31:02.311Z,11.88
2024-03-07T16:33:29.673Z,11.95
2024-03-07T16:35:58.491Z,9.68
2024-03-07T16:38:25.408Z,13.85
2024-03-07T16:40:52.994Z,12.55
2024-03-07T16:43:20.955Z,13.40
2024-03-07T16:45:47.611Z,13.95
2024-03-07T16:48:17.094Z,12.38
2024-03-07T16:50:44.752Z,13.80
2024-03-07T16:53:11.896Z,13.60
2024-03-07T16:55:38.689Z,12.95
2024-03-07T16:58:13.421Z,14.00
2024-03-07T17:00:44.018Z,14.05
2024-03-07T17:03:13.290Z,15.27
2024-03-07T17:05:42.692Z,10.68
2024-03-07T17:08:14.936Z,16.13
2024-03-07T17:10:44.175Z,10.95
2024-03-07T17:13:12.672Z,13.88
2024-03-07T17:15:39.863Z,14.52
2024-03-07T17:18:11.195Z,12.48
2024-03-07T17:20:38.339Z,10.32
2024-03-07T17:23:06.894Z,14.23
2024-03-07T17:25:34.572Z,11.82
2024-03-07T17:28:01.604Z,12.13
2024-03-07T17:30:29.955Z,11.95
2024-03-07T17:32:59.814Z,16.13
2024-03-07T17:35:30.008Z,14.57
2024-03-07T17:37:58.498Z,15.40
2024-03-07T17:40:32.291Z,13.60
2024-03-07T17:43:03.412Z,12.02
2024-03-07T17:45:34.983Z,12.48
2024-03-07T17:48:02.734Z,16.50
2024-03-07T17:50:32.381Z,12.20
2024-03-07T17:53:04.599Z,15.90
2024-03-07T17:55:34.202Z,10.98
2024-03-07T17:58:04.320Z,12.77
2024-03-07T18:00:31.402Z,12.90
2024-03-07T18:02:59.411Z,14.68
2024-03-07T18:05:30.365Z,14.10
2024-03-07T18:08:06.127Z,15.20
2024-03-07T18:10:46.525Z,15.48
2024-03-07T18:13:16.512Z,12.88
2024-03-07T18:15:43.460Z,14.00
2024-03-07T18:18:14.304Z,15.07
2024-03-07T18:20:45.458Z,14.18
2024-03-07T18:23:15.501Z,13.65
2024-03-07T18:25:43.072Z,15.85
2024-03-07T18:28:10.575Z,18.65
2024-03-07T18:30:37.545Z,15.05
2024-03-07T18:33:09.404Z,15.82
2024-03-07T18:35:39.638Z,16.02
2024-03-07T18:38:08.050Z,15.60
2024-03-07T18:40:36.217Z,15.32
2024-03-07T18:43:07.963Z,15.77
2024-03-07T18:45:36.758Z,18.20
2024-03-07T18:48:08.214Z,16.48
2024-03-07T18:50:43.647Z,14.82
2024-03-07T18:53:10.197Z,15.57
2024-03-07T18:55:38.285Z,15.88
2024-03-07T18:58:06.038Z,17.00
2024-03-07T19:00:33.445Z,14.40
2024-03-07T19:03:01.714Z,18.00
2024-03-07T19:05:29.364Z,18.02
2024-03-07T19:07:56.677Z,16.30
2024-03-07T19:10:24.146Z,17.88
2024-03-07T19:12:52.385Z,16.42
2024-03-07T19:15:19.550Z,16.88
2024-03-07T19:17:50.339Z,16.02
2024-03-07T19:20:20.381Z,18.20
2024-03-07T19:22:47.529Z,16.65
2024-03-07T19:25:18.359Z,18.10
2024-03-07T19:27:46.845Z,20.10
2024-03-07T19:30:18.756Z,16.33
2024-03-07T19:32:46.190Z,19.40
2024-03-07T19:35:14.977Z,16.50
2024-03-07T19:37:45.159Z,15.25
2024-03-07T19:40:16.055Z,18.08
2024-03-07T19:42:42.745Z,17.77
2024-03-07T19:45:14.391Z,20.40
2024-03-07T19:47:43.494Z,20.17
2024-03-07T19:50:13.408Z,17.17
2024-03-07T19:52:40.289Z,21.13
2024-03-07T19:55:08.644Z,18.90
2024-03-07T19:57:37.412Z,16.58
2024-03-07T20:00:09.949Z,18.70
2024-03-07T20:02:40.149Z,15.55
2024-03-07T20:05:10.215Z,17.77
2024-03-07T20:07:38.177Z,16.00
2024-03-07T20:10:08.236Z,19.40
2024-03-07T20:12:36.669Z,20.92
2024-03-07T20:15:03.683Z,16.80
2024-03-07T20:17:31.030Z,16.48
2024-03-07T20:19:57.847Z,15.63
2024-03-07T20:22:26.212Z,17.80
2024-03-07T20:24:53.074Z,17.77
2024-03-07T20:27:19.914Z,16.00
2024-03-07T20:29:46.491Z,17.92
2024-03-07T20:32:14.371Z,16.80
2024-03-07T20:34:45.529Z,14.32
2024-03-07T20:37:12.061Z,16.80
2024-03-07T20:39:42.061Z,16.15
2024-03-07T20:42:11.280Z,16.08
2024-03-07T20:44:39.004Z,17.80
2024-03-07T20:47:08.860Z,14.80
2024-03-07T20:49:36.847Z,15.38
2024-03-07T20:52:04.650Z,14.95
2024-03-07T20:54:31.210Z,19.10
2024-03-07T20:56:59.172Z,16.27
2024-03-07T20:59:25.835Z,16.85
2024-03-07T21:01:53.134Z,15.52
2024-03-07T21:04:21.168Z,17.10
2024-03-07T21:06:48.700Z,15.82
2024-03-07T21:09:17.897Z,15.90
2024-03-07T21:11:46.104Z,17.75
2024-03-07T21:14:14.719Z,16.75
2024-03-07T21:16:44.898Z,17.15
2024-03-07T21:19:11.868Z,17.95
2024-03-07T21:21:38.491Z,17.67
2024-03-07T21:24:05.973Z,15.40
2024-03-07T21:26:32.739Z,16.85
2024-03-07T21:28:59.362Z,16.70
2024-03-07T21:31:27.661Z,17.98
2024-03-07T21:33:54.354Z,17.88
2024-03-07T21:36:20.883Z,18.10
2024-03-07T21:38:47.508Z,17.70
2024-03-07T21:41:15.171Z,19.55
2024-03-07T21:43:41.845Z,18.50
2024-03-07T21:46:09.209Z,18.60
2024-03-07T21:48:37.339Z,16.95
2024-03-07T21:51:04.357Z,18.13
2024-03-07T21:53:31.334Z,19.77
2024-03-07T21:56:00.182Z,17.48
2024-03-07T21:58:26.843Z,17.15
2024-03-07T22:00:54.117Z,18.27
2024-03-07T22:03:20.750Z,19.60
2024-03-07T22:05:48.717Z,16.58
2024-03-07T22:08:15.913Z,18.85
2024-03-07T22:10:42.593Z,18.13
2024-03-07T22:13:10.632Z,16.65
2024-03-07T22:15:37.240Z,18.30
2024-03-07T22:18:04.867Z,19.98
2024-03-07T22:20:31.677Z,18.17
2024-03-07T22:22:59.572Z,19.05
2024-03-07T22:25:26.800Z,19.52
2024-03-07T22:27:53.958Z,20.10
2024-03-07T22:30:24.604Z,19.30
2024-03-07T22:32:52.461Z,19.08
2024-03-07T22:35:19.588Z,20.60
2024-03-07T22:37:51.441Z,19.05
2024-03-07T22:40:24.802Z,19.73
2024-03-07T22:42:52.623Z,18.45
2024-03-07T22:45:19.535Z,17.67
2024-03-07T22:47:53.988Z,19.70
2024-03-07T22:50:28.224Z,19.23
2024-03-07T22:52:57.841Z,21.00
2024-03-07T22:55:26.366Z,18.23
2024-03-07T22:57:53.348Z,19.13
2024-03-07T23:00:24.548Z,19.27
2024-03-07T23:02:51.480Z,18.90
2024-03-07T23:05:18.414Z,19.45
2024-03-07T23:07:45.276Z,20.13
2024-03-07T23:10:11.945Z,20.60
2024-03-07T23:12:40.176Z,19.38
